Time;durP1;ratioP1;P1;durP2;ratioP2;P2;SDS_P1;SDS_P2;PMS_P1;PMS_P2;Temp;Humidity;BMP_temperature;BMP_pressure;BME280_temperature;BME280_humidity;BME280_pressure;Samples;Min_cycle;Max_cycle;Signal;HPM_P1;HPM_P2
2022/08/03 00:01:23;;;;;;;4.18;3.63;;;;;;;17.81;85.34;100958.53;4975383;28;20042;-78
2022/08/03 00:03:50;;;;;;;4.88;4.38;;;;;;;17.81;85.05;100959.41;4985609;28;20038;-78
2022/08/03 00:06:17;;;;;;;5.63;4.10;;;;;;;17.82;84.99;100954.91;4981399;28;20037;-79
2022/08/03 00:08:43;;;;;;;5.53;3.95;;;;;;;17.79;85.04;100953.25;4993577;28;20049;-79
2022/08/03 00:11:10;;;;;;;4.38;3.83;;;;;;;17.78;84.40;100948.84;4994397;28;20046;-79
2022/08/03 00:13:37;;;;;;;4.25;3.85;;;;;;;17.73;84.57;100943.72;5005519;28;20088;-79
2022/08/03 00:16:04;;;;;;;4.88;3.50;;;;;;;17.69;84.37;100944.75;5015741;28;20458;-78
2022/08/03 00:18:30;;;;;;;4.25;3.80;;;;;;;17.65;84.64;100945.81;5002793;28;20045;-78
2022/08/03 00:20:57;;;;;;;3.80;3.50;;;;;;;17.64;85.03;100940.56;5009244;28;20038;-79
2022/08/03 00:23:24;;;;;;;5.30;4.78;;;;;;;17.68;85.68;100942.16;4977187;28;20073;-78
2022/08/03 00:25:50;;;;;;;6.32;4.50;;;;;;;17.65;86.47;100940.47;4990266;28;20046;-79
2022/08/03 00:28:17;;;;;;;4.68;4.00;;;;;;;17.66;86.52;100936.03;5006162;28;20038;-79
2022/08/03 00:30:44;;;;;;;5.07;4.35;;;;;;;17.67;87.33;100937.75;5010894;28;20037;-78
2022/08/03 00:33:10;;;;;;;4.55;4.15;;;;;;;17.67;87.51;100935.97;4994341;28;20041;-78
2022/08/03 00:35:39;;;;;;;5.72;4.65;;;;;;;17.68;87.88;100937.69;4996686;28;20097;-78
2022/08/03 00:38:17;;;;;;;4.63;4.22;;;;;;;17.72;88.13;100933.97;5016205;28;20045;-79
2022/08/03 00:40:43;;;;;;;6.40;4.70;;;;;;;17.76;88.10;100937.38;4977455;28;20091;-79
2022/08/03 00:43:10;;;;;;;4.28;3.85;;;;;;;17.77;88.82;100935.56;5017668;28;20593;-78
2022/08/03 00:45:39;;;;;;;4.90;3.80;;;;;;;17.80;88.68;100932.75;4993997;28;20034;-79
2022/08/03 00:48:10;;;;;;;6.80;4.50;;;;;;;17.82;88.68;100929.06;4989561;28;20053;-78
2022/08/03 00:50:57;;;;;;;5.05;4.60;;;;;;;17.85;87.94;100933.41;4970426;28;20097;-78
2022/08/03 00:53:24;;;;;;;4.00;3.70;;;;;;;17.85;88.31;100933.41;4990155;28;20383;-79
2022/08/03 00:55:51;;;;;;;5.00;4.00;;;;;;;17.86;88.04;100933.34;5006450;28;20062;-78
2022/08/03 00:58:17;;;;;;;4.88;4.38;;;;;;;17.88;87.57;100928.78;4977506;28;20501;-78
2022/08/03 01:00:44;;;;;;;4.35;3.90;;;;;;;17.86;87.54;100924.44;4986866;28;20552;-79
2022/08/03 01:03:11;;;;;;;3.90;3.60;;;;;;;17.85;87.58;100922.72;5009910;28;20038;-78
2022/08/03 01:05:57;;;;;;;4.57;4.15;;;;;;;17.88;87.87;100928.78;4979222;28;20042;-78
2022/08/03 01:08:53;;;;;;;5.03;4.53;;;;;;;17.87;88.14;100927.03;4991434;28;20503;-78
2022/08/03 01:11:39;;;;;;;4.57;4.18;;;;;;;17.87;87.77;100929.72;4986336;28;20046;-79
2022/08/03 01:15:09;;;;;;;4.75;4.07;;;;;;;17.85;87.75;100930.75;5005759;28;20491;-79
2022/08/03 01:17:59;;;;;;;4.43;4.03;;;;;;;17.79;87.38;100926.53;4985057;28;20556;-79
2022/08/03 01:20:30;;;;;;;6.00;4.30;;;;;;;17.75;86.14;100916.94;4989257;28;20042;-78
2022/08/03 01:23:34;;;;;;;4.50;4.10;;;;;;;17.70;85.78;100919.81;5000263;28;20130;-78
2022/08/03 01:26:23;;;;;;;5.40;4.38;;;;;;;17.67;85.63;100914.59;4980000;28;20415;-79
2022/08/03 01:29:06;;;;;;;4.35;3.88;;;;;;;17.67;84.90;100917.25;4995112;28;20038;-80
2022/08/03 01:31:43;;;;;;;4.53;4.07;;;;;;;17.64;84.20;100920.06;4988125;28;20061;-79
2022/08/03 01:34:31;;;;;;;5.03;3.80;;;;;;;17.65;83.16;100915.56;5012803;28;20551;-79
2022/08/03 01:37:00;;;;;;;18.05;6.15;;;;;;;17.63;83.23;100912.09;5001491;28;20041;-78
2022/08/03 01:39:28;;;;;;;24.83;7.00;;;;;;;17.63;83.30;100912.97;5000144;28;20060;-78
2022/08/03 01:41:58;;;;;;;30.63;8.35;;;;;;;17.63;83.11;100917.44;4991151;28;20038;-79
2022/08/03 01:44:29;;;;;;;13.20;5.80;;;;;;;17.68;82.07;100919.00;4976603;28;20046;-79
2022/08/03 01:46:59;;;;;;;13.10;5.25;;;;;;;17.64;81.66;100916.50;4993488;23;20033;-78
2022/08/03 01:49:27;;;;;;;17.83;6.03;;;;;;;17.63;81.75;100912.09;4971384;28;20076;-78
2022/08/03 01:51:54;;;;;;;16.13;5.45;;;;;;;17.61;82.38;100914.84;4990336;28;20049;-78
2022/08/03 01:54:35;;;;;;;9.20;4.97;;;;;;;17.62;82.79;100915.72;5003836;28;20507;-78
2022/08/03 01:57:03;;;;;;;10.77;4.60;;;;;;;17.63;82.57;100917.44;4995534;28;20037;-78
2022/08/03 01:59:32;;;;;;;7.82;4.47;;;;;;;17.64;82.48;100920.06;4988750;28;20049;-77
2022/08/03 02:01:59;;;;;;;7.57;3.75;;;;;;;17.65;81.93;100918.25;4991744;28;20041;-78
2022/08/03 02:04:46;;;;;;;4.55;4.10;;;;;;;17.65;81.21;100918.25;4991497;28;20574;-78
2022/08/03 02:07:13;;;;;;;5.80;4.20;;;;;;;17.65;80.88;100915.56;4977869;28;20041;-78
2022/08/03 02:09:43;;;;;;;4.15;3.75;;;;;;;17.63;81.23;100904.97;5008008;28;20038;-77
2022/08/03 02:12:11;;;;;;;4.20;3.80;;;;;;;17.64;82.30;100901.34;4990000;28;20088;-78
2022/08/03 02:14:39;;;;;;;8.13;4.65;;;;;;;17.70;82.88;100910.94;4991736;28;20399;-78
2022/08/03 02:17:07;;;;;;;5.95;4.30;;;;;;;17.74;82.92;100904.53;4991933;28;20434;-78
2022/08/03 02:19:34;;;;;;;7.90;4.55;;;;;;;17.75;83.87;100908.94;5007655;28;20604;-78
2022/08/03 02:22:03;;;;;;;6.55;4.22;;;;;;;17.73;84.24;100906.28;4976142;28;20103;-78
2022/08/03 02:24:30;;;;;;;5.22;4.38;;;;;;;17.75;84.79;100900.03;4972898;28;20045;-78
2022/08/03 02:26:57;;;;;;;5.00;4.50;;;;;;;17.73;85.00;100902.75;5005870;28;20030;-78
2022/08/03 02:29:27;;;;;;;4.55;4.15;;;;;;;17.71;84.77;100907.31;4974766;28;20049;-78
2022/08/03 02:32:09;;;;;;;4.90;4.30;;;;;;;17.70;84.24;100902.91;5000210;28;20038;-78
2022/08/03 02:34:36;;;;;;;7.10;3.90;;;;;;;17.70;84.54;100893.09;4991668;28;20505;-78
2022/08/03 02:37:03;;;;;;;4.57;4.00;;;;;;;17.72;84.40;100901.03;4983663;28;20495;-78
2022/08/03 02:39:32;;;;;;;4.43;4.03;;;;;;;17.72;84.54;100893.88;4986914;28;20041;-78
2022/08/03 02:42:02;;;;;;;4.43;4.03;;;;;;;17.72;84.74;100901.03;4994983;28;20494;-78
2022/08/03 02:44:31;;;;;;;5.85;4.40;;;;;;;17.71;84.80;100899.28;4991621;28;20045;-78
2022/08/03 02:47:02;;;;;;;4.80;4.13;;;;;;;17.69;84.77;100895.81;4995899;28;20042;-78
2022/08/03 02:49:30;;;;;;;4.80;4.20;;;;;;;17.66;85.56;100893.28;4973901;28;20045;-78
2022/08/03 02:52:16;;;;;;;5.15;4.65;;;;;;;17.62;85.35;100894.34;5008485;28;20042;-78
2022/08/03 02:54:44;;;;;;;5.82;5.03;;;;;;;17.54;83.07;100896.50;4972310;28;20045;-78
2022/08/03 02:57:12;;;;;;;4.30;3.90;;;;;;;17.45;82.95;100901.31;5008730;28;20038;-78
2022/08/03 02:59:40;;;;;;;4.30;3.90;;;;;;;17.40;82.70;100899.78;4975208;28;20038;-78
2022/08/03 03:02:09;;;;;;;4.07;3.67;;;;;;;17.37;83.31;100895.47;4972299;28;20560;-78
2022/08/03 03:04:35;;;;;;;4.32;3.92;;;;;;;17.34;84.49;100900.09;5005595;28;20483;-78
2022/08/03 03:07:02;;;;;;;4.47;4.07;;;;;;;17.31;86.08;100894.84;5000344;28;20100;-79
2022/08/03 03:09:31;;;;;;;5.05;4.28;;;;;;;17.28;87.30;100895.00;5007265;28;20053;-78
2022/08/03 03:12:08;;;;;;;4.60;4.20;;;;;;;17.21;87.54;100902.41;4992083;28;20042;-79
2022/08/03 03:14:36;;;;;;;7.38;4.60;;;;;;;17.14;88.45;100890.25;4997768;28;20104;-78
2022/08/03 03:17:04;;;;;;;4.00;3.70;;;;;;;17.06;89.46;100900.41;4974163;28;20473;-78
2022/08/03 03:19:34;;;;;;;6.00;4.75;;;;;;;16.97;89.99;100895.47;5001762;28;20073;-79
2022/08/03 03:22:01;;;;;;;6.00;4.57;;;;;;;16.89;90.33;100904.66;4979450;28;20057;-78
2022/08/03 03:24:28;;;;;;;4.72;4.18;;;;;;;16.82;90.48;100899.69;4990461;28;20060;-78
2022/08/03 03:26:56;;;;;;;5.15;4.20;;;;;;;16.73;90.03;100903.63;4996058;28;20034;-78
2022/08/03 03:29:22;;;;;;;4.95;4.45;;;;;;;16.66;90.54;100907.44;4999396;28;20045;-78
2022/08/03 03:31:49;;;;;;;7.15;4.40;;;;;;;16.58;90.74;100912.22;4974404;28;20041;-78
2022/08/03 03:34:17;;;;;;;4.47;4.07;;;;;;;16.50;90.54;100912.53;4990455;28;20046;-78
2022/08/03 03:36:43;;;;;;;6.35;5.35;;;;;;;16.44;90.22;100912.78;5005783;28;20033;-77
2022/08/03 03:39:10;;;;;;;4.95;4.47;;;;;;;16.40;90.48;100912.97;4975687;28;20038;-78
2022/08/03 03:41:41;;;;;;;5.60;4.80;;;;;;;16.37;91.09;100910.41;4960995;28;20466;-78
2022/08/03 03:44:08;;;;;;;5.40;4.90;;;;;;;16.33;91.91;100910.53;5014200;28;20125;-78
2022/08/03 03:46:36;;;;;;;5.30;4.80;;;;;;;16.27;91.72;100913.44;4976711;28;20037;-78
2022/08/03 03:49:05;;;;;;;5.50;5.00;;;;;;;16.21;91.45;100903.03;4989063;28;20056;-78
2022/08/03 03:51:31;;;;;;;4.70;4.22;;;;;;;16.16;91.65;100902.34;4978691;28;20049;-78
2022/08/03 03:54:01;;;;;;;6.07;4.53;;;;;;;16.13;90.54;100905.13;5010472;28;20038;-78
2022/08/03 03:56:27;;;;;;;5.10;4.70;;;;;;;16.10;90.52;100907.91;5000296;28;20551;-78
2022/08/03 03:58:55;;;;;;;4.50;4.10;;;;;;;16.05;90.96;100904.56;4959959;28;20879;-77
2022/08/03 04:01:21;;;;;;;5.40;4.88;;;;;;;16.03;91.72;100903.75;4986780;28;20046;-77
2022/08/03 04:03:48;;;;;;;5.25;4.55;;;;;;;15.99;92.55;100895.03;4979288;28;20141;-78
2022/08/03 07:48:46;;;;;;;2.72;2.40;;;;;;;30.84;30.78;100920.53;5089605;23;20508;-79
2022/08/03 07:51:13;;;;;;;9.68;3.13;;;;;;;31.06;30.51;100911.03;5027853;28;20038;-79
2022/08/03 07:53:40;;;;;;;4.60;2.40;;;;;;;31.26;30.78;100912.56;5005909;28;20046;-78
2022/08/03 07:56:12;;;;;;;3.83;2.53;;;;;;;31.46;30.22;100912.38;5018016;28;20117;-77
2022/08/03 07:58:39;;;;;;;2.80;2.60;;;;;;;31.52;29.94;100914.44;4988314;28;20383;-77
2022/08/03 08:01:07;;;;;;;2.92;2.50;;;;;;;31.60;29.27;100909.88;4978877;28;20046;-76
2022/08/03 08:03:34;;;;;;;3.70;2.55;;;;;;;31.79;29.14;100908.84;4978014;28;20622;-77
2022/08/03 08:06:18;;;;;;;2.55;2.35;;;;;;;31.94;29.76;100903.59;5015851;28;20038;-79
2022/08/03 08:08:45;;;;;;;2.97;2.38;;;;;;;32.20;29.06;100904.41;4987248;28;20041;-77
2022/08/03 08:11:12;;;;;;;6.38;2.72;;;;;;;32.36;28.72;100903.59;5010239;28;20037;-78
2022/08/03 08:13:38;;;;;;;4.30;2.72;;;;;;;32.47;29.45;100908.78;5007188;28;20042;-77
2022/08/03 08:16:05;;;;;;;3.53;2.50;;;;;;;32.63;28.12;100909.84;5020864;28;20041;-78
2022/08/03 08:18:33;;;;;;;3.83;2.60;;;;;;;32.63;28.28;100915.31;5015273;28;20041;-78
2022/08/03 08:21:02;;;;;;;2.80;2.47;;;;;;;32.51;28.28;100909.28;5026111;28;20065;-77
2022/08/03 08:23:28;;;;;;;3.33;2.65;;;;;;;32.64;27.44;100912.41;5000388;28;20045;-77
2022/08/03 08:26:08;;;;;;;3.22;2.63;;;;;;;32.12;28.10;100918.06;5021068;28;20034;-77
2022/08/03 08:28:35;;;;;;;3.65;2.75;;;;;;;32.31;28.26;100913.34;5032081;28;20041;-77
2022/08/03 08:31:01;;;;;;;2.90;2.58;;;;;;;32.39;28.14;100908.75;4992422;28;20041;-78
2022/08/03 08:33:28;;;;;;;3.72;3.10;;;;;;;32.35;27.97;100901.91;5013314;28;20057;-78
2022/08/03 08:36:13;;;;;;;4.28;2.55;;;;;;;32.45;28.15;100913.53;5006749;28;20038;-78
2022/08/03 08:38:43;;;;;;;4.13;2.60;;;;;;;31.57;29.00;100914.81;5022087;28;20033;-76
2022/08/03 08:41:11;;;;;;;3.85;2.70;;;;;;;32.03;28.62;100912.69;5001015;28;20042;-77
2022/08/03 08:43:37;;;;;;;221.90;31.63;;;;;;;32.34;29.77;100907.53;5013793;28;20042;-78
2022/08/03 08:46:07;;;;;;;3.60;2.35;;;;;;;32.57;29.55;100903.16;5010013;28;20046;-77
2022/08/03 08:48:35;;;;;;;2.55;2.35;;;;;;;32.74;28.82;100902.16;5034324;28;20048;-78
2022/08/03 08:51:02;;;;;;;3.38;2.60;;;;;;;32.95;29.03;100907.13;5025174;28;20032;-78
2022/08/03 08:53:31;;;;;;;9.75;3.50;;;;;;;33.07;28.62;100902.19;5016902;28;20053;-77
2022/08/03 08:55:59;;;;;;;3.53;2.72;;;;;;;33.13;28.52;100895.16;5033431;28;20033;-78
2022/08/03 08:58:34;;;;;;;3.08;2.50;;;;;;;33.29;28.42;100897.88;5029543;28;20108;-77
2022/08/03 09:01:01;;;;;;;2.80;2.60;;;;;;;33.53;28.92;100900.59;5007785;28;20403;-78
2022/08/03 09:03:28;;;;;;;7.05;2.88;;;;;;;33.69;27.48;100888.75;5029001;28;20414;-78
2022/08/03 09:05:58;;;;;;;2.50;2.30;;;;;;;33.62;27.36;100900.59;5002107;28;20184;-79
2022/08/03 09:08:25;;;;;;;2.88;2.47;;;;;;;33.82;26.90;100893.69;5013421;28;20049;-79
2022/08/03 09:10:51;;;;;;;2.38;2.17;;;;;;;33.88;27.98;100895.69;4991410;28;20039;-77
2022/08/03 09:13:18;;;;;;;2.78;2.58;;;;;;;33.59;27.14;100894.44;5010307;28;20087;-76
2022/08/03 09:15:45;;;;;;;3.08;2.70;;;;;;;33.79;28.61;100892.13;5005759;28;20645;-77
2022/08/03 09:18:30;;;;;;;3.60;2.70;;;;;;;34.17;26.93;100891.50;4999414;28;20045;-77
2022/08/03 09:21:30;;;;;;;3.50;2.45;;;;;;;34.12;27.22;100886.53;5005328;28;20832;-77
2022/08/03 09:24:00;;;;;;;3.60;2.78;;;;;;;34.30;27.58;100887.13;4960083;28;20067;-77
2022/08/03 09:26:32;;;;;;;2.67;2.47;;;;;;;34.46;27.41;100880.72;4990625;28;20129;-77
2022/08/03 09:29:01;;;;;;;3.88;2.60;;;;;;;34.55;26.35;100885.13;4996309;28;20041;-78
2022/08/03 09:31:45;;;;;;;4.95;2.55;;;;;;;34.75;26.79;100881.91;4992615;28;20521;-77
2022/08/03 09:34:16;;;;;;;3.50;2.55;;;;;;;34.87;26.25;100880.41;5011085;28;20034;-78
2022/08/03 09:36:45;;;;;;;4.03;3.00;;;;;;;34.24;26.47;100873.31;4996434;28;20067;-77
2022/08/03 09:39:14;;;;;;;2.40;2.20;;;;;;;34.47;26.18;100874.19;5020200;28;20507;-77
2022/08/03 09:41:43;;;;;;;3.95;2.55;;;;;;;34.65;26.11;100877.53;4997934;28;20132;-76
2022/08/03 09:44:10;;;;;;;2.90;2.30;;;;;;;33.94;27.21;100877.72;4992288;28;20494;-80
2022/08/03 09:46:55;;;;;;;2.30;2.10;;;;;;;34.00;27.01;100869.66;5031543;28;20056;-76
2022/08/03 09:49:22;;;;;;;4.65;2.50;;;;;;;34.33;26.61;100867.59;5004854;28;20037;-77
2022/08/03 09:51:49;;;;;;;3.25;2.60;;;;;;;34.54;26.76;100875.19;5030008;28;20060;-77
2022/08/03 09:54:36;;;;;;;3.53;2.20;;;;;;;34.59;25.90;100871.91;5024170;28;20033;-78
2022/08/03 09:57:03;;;;;;;3.22;2.33;;;;;;;34.35;25.96;100873.72;4994511;28;20048;-79
2022/08/03 09:59:31;;;;;;;4.35;2.25;;;;;;;34.54;26.07;100879.81;4991582;28;20388;-77
2022/08/03 10:01:59;;;;;;;4.25;2.70;;;;;;;34.82;26.39;100867.25;5001489;28;20538;-78
2022/08/03 10:04:26;;;;;;;2.75;2.45;;;;;;;34.78;25.90;100860.41;5015347;28;21810;-76
2022/08/03 10:07:10;;;;;;;3.05;2.53;;;;;;;34.43;26.58;100861.88;4989343;28;20448;-79
2022/08/03 10:09:37;;;;;;;3.05;2.47;;;;;;;34.63;26.48;100863.09;5028570;28;20041;-77
2022/08/03 10:12:11;;;;;;;2.47;2.28;;;;;;;34.78;26.98;100854.94;5029407;28;20041;-77
2022/08/03 10:14:40;;;;;;;2.55;2.35;;;;;;;34.48;25.96;100858.63;5011473;28;20104;-78
2022/08/03 10:17:10;;;;;;;10.88;4.88;;;;;;;34.50;25.96;100853.78;4975978;28;20091;-77
2022/08/03 10:19:37;;;;;;;3.45;2.28;;;;;;;34.43;26.36;100861.88;5011173;28;20490;-77
2022/08/03 10:22:09;;;;;;;2.75;2.10;;;;;;;34.28;26.02;100859.03;5001581;28;20053;-77
2022/08/03 10:24:36;;;;;;;3.55;2.15;;;;;;;34.70;25.82;100860.47;4995617;28;20129;-78
2022/08/03 10:27:06;;;;;;;3.85;2.83;;;;;;;34.29;25.98;100849.75;4994499;28;20044;-77
2022/08/03 10:29:37;;;;;;;4.32;3.92;;;;;;;34.53;26.14;100857.00;5023212;28;20042;-78
2022/08/03 10:32:13;;;;;;;2.40;1.98;;;;;;;34.76;26.08;100851.53;4991086;28;20128;-78
2022/08/03 10:34:41;;;;;;;2.40;2.20;;;;;;;35.20;25.40;100845.31;5006426;28;20041;-77
2022/08/03 10:37:11;;;;;;;3.03;2.10;;;;;;;35.33;25.45;100847.41;5018222;28;20140;-79
2022/08/03 10:39:52;;;;;;;2.70;2.50;;;;;;;35.62;25.05;100841.94;5004791;28;20498;-79
2022/08/03 10:42:23;;;;;;;2.60;2.40;;;;;;;35.77;24.62;100850.19;5027144;28;20041;-78
2022/08/03 10:45:01;;;;;;;;;;;;;;;35.79;24.40;100848.94;5010168;28;20034;-79
2022/08/03 10:47:28;;;;;;;2.20;2.00;;;;;;;35.84;24.08;100842.88;5005549;28;19965;-77
2022/08/03 10:49:55;;;;;;;3.67;2.20;;;;;;;35.70;24.27;100839.09;4994880;28;20041;-78
2022/08/03 10:52:22;;;;;;;3.13;2.67;;;;;;;35.59;24.90;100836.00;5007428;28;20075;-78
2022/08/03 10:57:49;;;;;;;4.13;2.50;;;;;;;35.63;25.05;100846.38;5009397;28;20124;-79
2022/08/03 11:00:25;;;;;;;2.75;2.45;;;;;;;35.42;24.72;100835.31;5004406;28;20129;-79
2022/08/03 11:03:13;;;;;;;4.32;2.20;;;;;;;35.46;24.63;100837.50;5012682;28;20490;-78
2022/08/03 11:05:45;;;;;;;3.00;2.30;;;;;;;35.19;25.18;100833.47;5028395;28;20034;-78
2022/08/03 11:08:33;;;;;;;3.25;2.40;;;;;;;34.95;25.20;100830.97;5026536;28;20033;-78
2022/08/03 11:11:17;;;;;;;15.05;3.92;;;;;;;35.22;24.74;100824.84;5013913;28;20043;-77
2022/08/03 11:13:56;;;;;;;2.97;2.20;;;;;;;34.66;25.17;100813.34;5022366;28;20037;-77
2022/08/03 11:16:25;;;;;;;2.65;2.33;;;;;;;34.95;25.41;100822.72;4994250;28;20041;-77
2022/08/03 11:18:57;;;;;;;3.08;1.98;;;;;;;35.30;25.02;100810.16;4990969;28;20038;-78
2022/08/03 11:21:49;;;;;;;2.67;2.08;;;;;;;35.75;24.75;100809.16;5012040;28;20555;-77
2022/08/03 11:24:45;;;;;;;2.25;2.05;;;;;;;35.81;23.86;100813.84;5004526;28;20116;-79
2022/08/03 11:27:20;;;;;;;60.78;11.00;;;;;;;35.44;24.64;100814.84;5008487;28;20124;-76
2022/08/03 11:29:57;;;;;;;3.03;2.00;;;;;;;35.38;24.51;100807.31;5004986;28;20037;-77
2022/08/03 11:32:44;;;;;;;2.72;2.15;;;;;;;35.57;24.12;100811.44;5019645;28;20076;-78
2022/08/03 11:35:31;;;;;;;2.17;2.00;;;;;;;35.93;24.21;100807.91;5022215;28;20133;-78
2022/08/03 11:37:57;;;;;;;3.47;2.72;;;;;;;36.05;24.99;100809.94;5034719;28;20032;-77
2022/08/03 11:40:51;;;;;;;5.18;4.68;;;;;;;35.90;24.01;100814.63;5011202;28;20038;-77
2022/08/03 11:43:21;;;;;;;2.40;2.20;;;;;;;35.77;25.00;100806.19;4992477;28;20038;-78
2022/08/03 11:46:15;;;;;;;2.70;2.17;;;;;;;35.47;24.63;100799.88;5008848;28;20037;-77
2022/08/03 11:49:02;;;;;;;2.95;2.20;;;;;;;35.23;25.00;100801.84;4978196;28;20040;-77
2022/08/03 11:51:36;;;;;;;2.90;2.15;;;;;;;35.48;24.74;100798.81;4994824;28;20034;-77
2022/08/03 11:54:04;;;;;;;2.40;2.20;;;;;;;35.75;24.46;100806.41;5011250;28;20041;-78
2022/08/03 11:56:48;;;;;;;29.95;5.32;;;;;;;35.49;24.25;100797.81;4984250;28;20423;-76
2022/08/03 11:59:17;;;;;;;2.78;2.17;;;;;;;35.78;24.82;100799.66;5014984;28;20029;-77
2022/08/03 12:01:48;;;;;;;;;;;;;;;35.95;24.21;100803.91;4999075;28;20045;-77
2022/08/03 12:04:15;;;;;;;2.20;2.03;;;;;;;36.05;24.09;100804.44;5008160;28;19929;-78
2022/08/03 12:06:57;;;;;;;3.67;2.40;;;;;;;36.17;23.80;100799.31;5000758;28;20669;-76
2022/08/03 12:09:24;;;;;;;3.25;2.10;;;;;;;36.14;23.53;100796.06;4987739;28;20041;-76
2022/08/03 12:11:51;;;;;;;2.40;2.20;;;;;;;35.88;23.91;100788.34;4965159;28;20046;-77
2022/08/03 12:14:26;;;;;;;2.40;2.20;;;;;;;35.54;24.79;100790.69;4994106;28;20077;-76
2022/08/03 12:17:12;;;;;;;2.67;2.33;;;;;;;35.80;25.09;100800.31;5013470;28;20037;-78
2022/08/03 12:19:43;;;;;;;3.92;2.00;;;;;;;35.57;23.88;100794.97;4989823;28;20049;-76
2022/08/03 12:22:10;;;;;;;2.50;2.30;;;;;;;35.68;24.27;100796.34;4994767;28;20041;-77
2022/08/03 12:24:43;;;;;;;2.30;2.00;;;;;;;35.99;24.20;100796.16;5001409;28;20038;-78
2022/08/03 12:27:24;;;;;;;4.60;2.40;;;;;;;35.75;23.97;100792.66;5003169;28;20140;-77
2022/08/03 12:29:53;;;;;;;3.28;1.85;;;;;;;34.69;24.77;100795.66;5001456;28;20037;-77
2022/08/03 12:32:26;;;;;;;2.10;1.90;;;;;;;35.00;24.75;100786.50;4982100;28;20038;-76
2022/08/03 12:34:54;;;;;;;2.17;1.98;;;;;;;35.33;24.47;100786.97;4990147;28;20049;-76
2022/08/03 12:37:21;;;;;;;2.22;2.03;;;;;;;35.46;24.02;100789.94;5013583;28;20552;-76
2022/08/03 12:39:58;;;;;;;2.83;2.40;;;;;;;35.06;24.99;100788.47;5015435;28;20037;-76
2022/08/03 12:42:34;;;;;;;3.75;2.25;;;;;;;35.43;24.39;100780.19;4995628;28;20042;-77
2022/08/03 12:45:37;;;;;;;2.63;2.40;;;;;;;35.38;24.82;100779.84;4994385;28;20045;-77
2022/08/03 12:48:09;;;;;;;2.97;2.20;;;;;;;35.55;24.28;100764.03;4926675;29;20170;-77
2022/08/03 12:50:37;;;;;;;3.10;2.20;;;;;;;35.53;24.89;100771.63;4982855;28;20100;-77
2022/08/03 12:53:05;;;;;;;2.35;2.03;;;;;;;35.74;24.91;100779.97;4995906;28;20049;-76
2022/08/03 12:55:36;;;;;;;2.83;2.53;;;;;;;35.63;24.11;100774.94;4998481;28;20045;-76
2022/08/03 12:58:32;;;;;;;2.38;2.17;;;;;;;36.05;24.46;100776.09;5007818;28;20037;-77
2022/08/03 13:01:00;;;;;;;2.67;2.00;;;;;;;35.94;24.15;100782.97;5000299;28;20493;-76
2022/08/03 13:03:45;;;;;;;2.00;1.85;;;;;;;35.71;24.69;100763.81;4985693;28;20669;-77
2022/08/03 13:06:23;;;;;;;2.45;2.20;;;;;;;35.76;24.54;100772.38;5013724;28;20092;-76
2022/08/03 13:09:01;;;;;;;2.67;2.08;;;;;;;36.01;23.99;100766.53;4979526;28;20053;-76
2022/08/03 13:11:28;;;;;;;2.60;2.40;;;;;;;36.21;24.08;100764.84;4997296;28;20099;-77
2022/08/03 13:14:14;;;;;;;3.05;2.50;;;;;;;35.75;24.10;100759.66;5032595;28;20048;-78
2022/08/03 13:16:46;;;;;;;3.28;2.25;;;;;;;35.65;24.61;100755.50;4998572;28;20041;-77
2022/08/03 13:19:12;;;;;;;3.33;2.40;;;;;;;35.57;24.79;100756.47;5024993;28;20034;-77
2022/08/03 13:21:41;;;;;;;2.47;2.28;;;;;;;35.76;24.83;100758.63;5017491;28;20037;-77
2022/08/03 13:24:29;;;;;;;3.38;2.50;;;;;;;35.57;25.01;100759.22;5015691;28;20042;-77
2022/08/03 13:26:55;;;;;;;2.47;2.13;;;;;;;35.48;25.02;100753.00;5015623;28;20136;-76
2022/08/03 13:29:22;;;;;;;3.22;2.17;;;;;;;35.33;24.62;100762.25;5028897;28;20045;-78
2022/08/03 13:31:49;;;;;;;3.80;2.10;;;;;;;35.00;24.76;100748.03;5018807;28;20134;-77
2022/08/03 13:34:18;;;;;;;2.50;2.20;;;;;;;34.98;25.41;100751.00;5033084;28;20033;-76
2022/08/03 13:36:49;;;;;;;20.15;5.38;;;;;;;34.64;25.53;100749.59;5011088;28;20518;-77
2022/08/03 13:39:35;;;;;;;2.63;2.10;;;;;;;34.69;26.39;100738.88;5028287;28;20038;-77
2022/08/03 13:42:21;;;;;;;4.82;2.85;;;;;;;34.99;26.16;100744.44;5016927;28;20089;-77
2022/08/03 13:44:48;;;;;;;2.97;2.13;;;;;;;34.96;26.62;100742.06;5010514;28;20436;-77
2022/08/03 13:47:15;;;;;;;4.75;2.28;;;;;;;34.94;26.11;100747.75;4996072;28;20050;-77
2022/08/03 13:49:41;;;;;;;3.72;2.33;;;;;;;34.76;25.78;100741.75;5000059;28;20049;-76
2022/08/03 13:52:26;;;;;;;2.58;2.17;;;;;;;34.76;25.81;100739.00;5059221;23;20042;-82
2022/08/03 13:54:53;;;;;;;2.42;1.85;;;;;;;34.80;26.01;100736.72;4959936;28;20061;-82
2022/08/03 13:57:20;;;;;;;3.50;2.30;;;;;;;34.74;26.01;100740.22;4987865;28;20078;-81
2022/08/03 14:00:08;;;;;;;2.58;2.22;;;;;;;34.60;25.99;100736.41;4974590;28;20039;-80
2022/08/03 14:02:34;;;;;;;3.30;2.25;;;;;;;34.69;26.44;100725.16;4987246;28;20052;-81
2022/08/03 14:05:08;;;;;;;4.68;2.47;;;;;;;34.76;26.30;100733.50;4974341;28;20054;-79
2022/08/03 14:07:35;;;;;;;2.58;2.25;;;;;;;34.75;25.78;100729.06;4973108;28;20396;-83
2022/08/03 14:10:02;;;;;;;2.50;2.30;;;;;;;34.89;25.98;100719.13;4969315;28;20047;-81
2022/08/03 14:12:29;;;;;;;4.03;2.33;;;;;;;35.11;26.02;100734.69;4974146;28;20122;-81
2022/08/03 14:14:56;;;;;;;3.67;2.22;;;;;;;35.17;25.76;100731.19;4975646;28;20074;-82
2022/08/03 14:17:27;;;;;;;2.50;2.30;;;;;;;35.02;25.96;100733.09;4951393;28;20047;-82
2022/08/03 14:20:08;;;;;;;2.85;2.15;;;;;;;35.06;26.85;100726.16;4979001;28;20057;-81
2022/08/03 14:22:55;;;;;;;8.95;2.63;;;;;;;35.15;25.92;100719.56;4957778;28;20106;-81
2022/08/03 14:25:22;;;;;;;2.30;2.10;;;;;;;35.25;26.20;100722.84;4965516;28;20051;-79
2022/08/03 14:27:49;;;;;;;3.15;2.67;;;;;;;34.55;25.73;100709.50;4962991;28;20054;-79
2022/08/03 14:30:16;;;;;;;3.20;2.50;;;;;;;34.58;26.16;100711.91;4970283;28;20129;-80
2022/08/03 14:32:42;;;;;;;2.22;2.03;;;;;;;34.84;27.03;100721.59;4957832;28;20128;-82
2022/08/03 14:35:09;;;;;;;3.13;2.00;;;;;;;35.00;25.44;100712.34;4957895;28;20089;-80
2022/08/03 14:37:36;;;;;;;2.25;2.05;;;;;;;35.08;25.89;100710.38;4958852;28;20035;-79
2022/08/03 14:40:04;;;;;;;2.60;2.40;;;;;;;35.22;26.18;100714.13;4972406;28;20042;-79
2022/08/03 14:42:31;;;;;;;2.45;2.25;;;;;;;35.44;25.82;100710.44;4954383;28;20081;-80
2022/08/03 14:44:58;;;;;;;2.53;2.33;;;;;;;35.38;26.16;100718.56;4971018;28;20055;-82
2022/08/03 14:47:32;;;;;;;2.55;2.10;;;;;;;35.46;26.38;100718.50;4966417;28;20044;-85
2022/08/03 14:50:20;;;;;;;3.45;2.50;;;;;;;35.28;25.98;100712.53;4958401;28;20070;-82
2022/08/03 14:53:06;;;;;;;2.53;2.20;;;;;;;35.20;25.78;100706.09;4976789;28;20130;-80
2022/08/03 14:55:36;;;;;;;2.35;1.88;;;;;;;35.16;26.18;100698.44;4958831;28;20062;-80
2022/08/03 14:58:21;;;;;;;2.38;2.08;;;;;;;35.29;26.49;100700.47;4968551;28;20039;-80
2022/08/03 15:01:00;;;;;;;2.30;2.10;;;;;;;35.05;26.52;100694.25;4954032;28;20035;-81
2022/08/03 15:03:48;;;;;;;5.03;2.28;;;;;;;35.15;26.28;100702.22;4964806;28;21000;-81
2022/08/03 15:06:15;;;;;;;3.35;2.30;;;;;;;35.22;26.79;100701.25;4970313;28;20411;-80
2022/08/03 15:08:42;;;;;;;2.60;2.20;;;;;;;35.18;26.49;100702.69;4967932;28;21120;-81
2022/08/03 15:11:29;;;;;;;2.85;2.40;;;;;;;35.10;26.72;100696.44;4969482;28;20050;-79
2022/08/03 15:13:55;;;;;;;3.25;2.40;;;;;;;35.14;26.68;100695.00;4949693;28;20074;-80
2022/08/03 15:16:22;;;;;;;4.65;2.10;;;;;;;35.20;27.21;100699.75;4972247;28;20050;-80
2022/08/03 15:18:55;;;;;;;3.45;2.20;;;;;;;35.04;26.82;100703.53;4967352;28;20043;-79
2022/08/03 15:21:22;;;;;;;5.38;2.65;;;;;;;35.17;26.22;100695.50;4953074;28;20050;-80
2022/08/03 15:24:09;;;;;;;2.50;2.30;;;;;;;35.07;26.36;100686.69;4979921;28;20054;-79
2022/08/03 15:26:36;;;;;;;16.98;3.00;;;;;;;34.81;26.42;100689.00;4970435;28;20038;-79
2022/08/03 15:29:07;;;;;;;3.67;2.80;;;;;;;34.88;26.83;100684.47;4967868;28;20041;-79
2022/08/03 15:31:54;;;;;;;2.72;2.40;;;;;;;34.69;26.57;100692.22;4949854;28;20037;-79
2022/08/03 15:34:20;;;;;;;2.40;2.20;;;;;;;34.68;27.30;100693.28;4963774;28;20070;-80